Time;durP1;ratioP1;P1;durP2;ratioP2;P2;SDS_P1;SDS_P2;PMS_P1;PMS_P2;Temp;Humidity;BMP_temperature;BMP_pressure;BME280_temperature;BME280_humidity;BME280_pressure;Samples;Min_cycle;Max_cycle;Signal;HPM_P1;HPM_P2
2021/07/01 00:00:18;;;;;;;6.90;0.80;;;;;;;;;;5052737;28;20057;-50
2021/07/01 00:02:45;;;;;;;3.55;0.80;;;;;;;;;;5063524;28;20045;-50
2021/07/01 00:05:12;;;;;;;1.60;0.90;;;;;;;;;;5072334;28;20025;-50
2021/07/01 00:07:42;;;;;;;0.70;0.70;;;;;;;;;;5071074;28;20024;-50
2021/07/01 00:10:09;;;;;;;4.88;0.82;;;;;;;;;;5072504;28;20029;-50
2021/07/01 00:12:35;;;;;;;3.88;0.75;;;;;;;;;;5071242;28;20037;-50
2021/07/01 00:15:01;;;;;;;0.80;0.55;;;;;;;;;;5072422;28;20023;-50
2021/07/01 00:17:27;;;;;;;6.93;0.90;;;;;;;;;;5072042;28;20341;-50
2021/07/01 00:19:53;;;;;;;11.07;1.00;;;;;;;;;;5070213;28;20078;-50
2021/07/01 00:22:19;;;;;;;6.00;0.90;;;;;;;;;;5071475;28;20040;-50
2021/07/01 00:24:45;;;;;;;2.10;0.80;;;;;;;;;;5072280;28;20120;-50
2021/07/01 00:27:11;;;;;;;1.25;0.60;;;;;;;;;;5071699;28;20025;-50
2021/07/01 00:29:37;;;;;;;42.72;1.42;;;;;;;;;;5070299;28;20086;-50
2021/07/01 00:32:03;;;;;;;1.63;0.70;;;;;;;;;;5071313;28;20359;-50
2021/07/01 00:34:29;;;;;;;9.23;1.00;;;;;;;;;;5071551;28;20020;-50
2021/07/01 00:36:55;;;;;;;0.63;0.63;;;;;;;;;;5072302;28;20432;-50
2021/07/01 00:39:21;;;;;;;0.63;0.63;;;;;;;;;;5071659;28;20060;-50
2021/07/01 00:41:47;;;;;;;5.53;0.98;;;;;;;;;;5053089;28;20082;-50
2021/07/01 00:44:12;;;;;;;1.33;0.60;;;;;;;;;;5052181;28;20064;-50
2021/07/01 00:46:38;;;;;;;0.80;0.68;;;;;;;;;;5052063;28;20029;-50
2021/07/01 00:49:05;;;;;;;1.13;0.80;;;;;;;;;;5052634;28;20028;-50
2021/07/01 00:51:32;;;;;;;5.80;0.90;;;;;;;;;;5063400;28;20448;-50
2021/07/01 00:53:58;;;;;;;5.13;1.20;;;;;;;;;;5055536;28;20041;-50
2021/07/01 00:56:24;;;;;;;2.88;0.90;;;;;;;;;;5055714;28;20029;-50
2021/07/01 00:58:54;;;;;;;0.55;0.55;;;;;;;;;;5055004;28;20032;-50
2021/07/01 01:01:21;;;;;;;0.70;0.70;;;;;;;;;;5055962;28;20023;-50
2021/07/01 01:03:47;;;;;;;0.70;0.70;;;;;;;;;;5055192;28;20037;-50
2021/07/01 01:06:14;;;;;;;1.75;0.80;;;;;;;;;;5055285;28;20029;-50
2021/07/01 01:08:40;;;;;;;0.70;0.70;;;;;;;;;;5055202;28;20018;-50
2021/07/01 01:11:06;;;;;;;4.30;0.70;;;;;;;;;;5054740;28;20020;-50
2021/07/01 01:13:32;;;;;;;0.73;0.73;;;;;;;;;;5055996;28;20025;-50
2021/07/01 01:15:59;;;;;;;0.50;0.50;;;;;;;;;;5054847;28;20025;-50
2021/07/01 01:18:25;;;;;;;1.60;0.88;;;;;;;;;;5055120;28;20033;-50
2021/07/01 01:20:52;;;;;;;1.80;0.85;;;;;;;;;;5054205;28;20475;-50
2021/07/01 01:23:19;;;;;;;0.47;0.40;;;;;;;;;;5055693;28;20040;-50
2021/07/01 01:25:47;;;;;;;0.90;0.80;;;;;;;;;;5055027;28;20067;-50
2021/07/01 01:28:13;;;;;;;1.17;0.70;;;;;;;;;;5072655;28;20028;-50
2021/07/01 01:30:39;;;;;;;1.02;0.80;;;;;;;;;;5073968;28;20032;-50
2021/07/01 01:33:09;;;;;;;0.50;0.50;;;;;;;;;;5073026;28;20029;-50
2021/07/01 01:35:35;;;;;;;0.57;0.57;;;;;;;;;;5074866;28;20029;-50
2021/07/01 01:38:02;;;;;;;0.68;0.68;;;;;;;;;;5074101;28;20033;-50
2021/07/01 01:40:29;;;;;;;0.82;0.80;;;;;;;;;;5074889;28;20028;-50
2021/07/01 01:42:55;;;;;;;1.10;0.80;;;;;;;;;;5073862;28;20064;-50
2021/07/01 01:45:21;;;;;;;0.70;0.70;;;;;;;;;;5058488;28;20043;-50
2021/07/01 01:47:48;;;;;;;0.88;0.73;;;;;;;;;;5054569;28;20112;-49
2021/07/01 01:50:18;;;;;;;6.85;0.95;;;;;;;;;;5064904;28;20021;-50
2021/07/01 01:52:44;;;;;;;;;;;;;;;;;;5073883;28;20351;-50
2021/07/01 01:55:12;;;;;;;6.63;0.70;;;;;;;;;;5065392;28;19909;-50
2021/07/01 01:57:38;;;;;;;4.47;0.57;;;;;;;;;;5053924;28;20029;-50
2021/07/01 02:00:04;;;;;;;0.63;0.52;;;;;;;;;;5054150;28;20054;-50
2021/07/01 02:02:30;;;;;;;2.35;0.70;;;;;;;;;;5053282;28;20033;-49
2021/07/01 02:04:56;;;;;;;0.52;0.50;;;;;;;;;;5055158;28;20052;-49
2021/07/01 02:07:22;;;;;;;2.15;0.98;;;;;;;;;;5074143;28;20024;-49
2021/07/01 02:09:48;;;;;;;15.10;0.88;;;;;;;;;;5074074;28;20494;-50
2021/07/01 02:12:14;;;;;;;0.60;0.60;;;;;;;;;;5073106;28;20032;-50
2021/07/01 02:14:40;;;;;;;3.92;0.70;;;;;;;;;;5073892;28;20048;-50
2021/07/01 02:17:06;;;;;;;0.63;0.63;;;;;;;;;;5072544;28;20099;-50
2021/07/01 02:19:32;;;;;;;0.63;0.63;;;;;;;;;;5073624;28;20048;-50
2021/07/01 02:21:58;;;;;;;0.80;0.80;;;;;;;;;;5073060;28;20463;-50
2021/07/01 02:24:24;;;;;;;4.18;0.60;;;;;;;;;;5073626;28;20028;-50
2021/07/01 02:26:50;;;;;;;2.95;1.40;;;;;;;;;;5071525;28;20162;-49
2021/07/01 02:29:16;;;;;;;11.38;1.05;;;;;;;;;;5073430;28;20452;-49
2021/07/01 02:31:42;;;;;;;0.47;0.47;;;;;;;;;;5072673;28;20035;-49
2021/07/01 02:34:08;;;;;;;0.70;0.70;;;;;;;;;;5073624;28;20375;-49
2021/07/01 02:36:34;;;;;;;3.53;0.60;;;;;;;;;;5064432;28;20079;-50
2021/07/01 02:39:00;;;;;;;0.70;0.70;;;;;;;;;;5071265;28;20032;-50
2021/07/01 02:41:26;;;;;;;0.60;0.60;;;;;;;;;;5072343;28;20012;-50
2021/07/01 02:43:52;;;;;;;4.35;0.63;;;;;;;;;;5071825;28;20040;-50
2021/07/01 02:46:18;;;;;;;4.43;0.73;;;;;;;;;;5073215;28;20024;-50
2021/07/01 02:48:44;;;;;;;10.35;0.80;;;;;;;;;;5071117;28;20032;-50
2021/07/01 02:51:10;;;;;;;6.28;0.60;;;;;;;;;;5072929;28;20013;-50
2021/07/01 02:53:36;;;;;;;0.93;0.70;;;;;;;;;;5073200;28;20048;-50
2021/07/01 02:56:02;;;;;;;0.70;0.70;;;;;;;;;;5073254;28;20040;-50
2021/07/01 02:58:28;;;;;;;4.38;0.75;;;;;;;;;;5067313;28;20032;-49
2021/07/01 03:00:54;;;;;;;5.18;0.75;;;;;;;;;;5052478;28;20029;-49
2021/07/01 03:03:20;;;;;;;8.07;1.35;;;;;;;;;;5052736;28;20033;-50
2021/07/01 03:05:46;;;;;;;1.38;1.20;;;;;;;;;;5052861;28;20021;-50
2021/07/01 03:08:12;;;;;;;1.40;0.50;;;;;;;;;;5054151;28;20049;-50
2021/07/01 03:10:38;;;;;;;0.77;0.77;;;;;;;;;;5051968;28;20479;-50
2021/07/01 03:13:04;;;;;;;5.03;0.77;;;;;;;;;;5069670;28;20028;-50
2021/07/01 03:15:30;;;;;;;0.77;0.70;;;;;;;;;;5073176;28;20469;-50
2021/07/01 03:17:56;;;;;;;6.50;0.80;;;;;;;;;;5072151;28;20269;-50
2021/07/01 03:20:22;;;;;;;1.65;0.90;;;;;;;;;;5072526;28;20044;-50
2021/07/01 03:22:48;;;;;;;1.58;0.65;;;;;;;;;;5070078;28;20044;-50
2021/07/01 03:25:14;;;;;;;6.50;0.70;;;;;;;;;;5072766;28;20405;-50
2021/07/01 03:27:40;;;;;;;3.08;0.93;;;;;;;;;;5072818;28;20031;-50
2021/07/01 03:30:07;;;;;;;1.17;0.60;;;;;;;;;;5072996;28;20111;-50
2021/07/01 03:32:33;;;;;;;4.43;0.70;;;;;;;;;;5069514;28;20074;-50
2021/07/01 03:34:59;;;;;;;2.35;0.93;;;;;;;;;;5072870;28;20016;-49
2021/07/01 03:37:25;;;;;;;0.85;0.73;;;;;;;;;;5072422;28;20023;-50
2021/07/01 03:39:51;;;;;;;1.10;0.85;;;;;;;;;;5072509;28;20104;-49
2021/07/01 03:42:20;;;;;;;4.13;0.95;;;;;;;;;;5071760;28;20017;-50
2021/07/01 03:44:46;;;;;;;1.05;0.73;;;;;;;;;;5070836;28;20467;-50
2021/07/01 03:47:13;;;;;;;3.17;1.02;;;;;;;;;;5071720;28;20036;-49
2021/07/01 03:49:39;;;;;;;10.65;0.88;;;;;;;;;;5072554;28;20039;-49
2021/07/01 03:52:05;;;;;;;0.80;0.80;;;;;;;;;;5071716;28;20028;-49
2021/07/01 03:54:31;;;;;;;6.45;1.05;;;;;;;;;;5063764;28;20024;-49
2021/07/01 03:56:57;;;;;;;9.27;1.42;;;;;;;;;;5052268;28;20032;-49
2021/07/01 03:59:24;;;;;;;44.60;2.45;;;;;;;;;;5052960;28;20101;-50
2021/07/01 04:01:50;;;;;;;75.03;2.85;;;;;;;;;;5051630;28;20025;-49
2021/07/01 04:04:16;;;;;;;3.25;1.05;;;;;;;;;;5053444;28;20036;-49
2021/07/01 04:06:42;;;;;;;3.75;0.80;;;;;;;;;;5052830;28;20063;-50
2021/07/01 04:09:08;;;;;;;2.85;0.90;;;;;;;;;;5051891;28;20504;-49
2021/07/01 04:11:35;;;;;;;2.78;1.00;;;;;;;;;;5051568;28;20025;-49
2021/07/01 04:14:01;;;;;;;1.85;0.88;;;;;;;;;;5052496;28;20112;-50
2021/07/01 04:16:27;;;;;;;1.00;0.90;;;;;;;;;;5053538;28;20083;-49
2021/07/01 04:18:53;;;;;;;2.65;1.52;;;;;;;;;;5051956;28;20040;-50
2021/07/01 04:21:19;;;;;;;1.27;1.10;;;;;;;;;;5059738;28;20111;-49
2021/07/01 04:23:46;;;;;;;1.25;1.15;;;;;;;;;;5072777;28;20422;-50
2021/07/01 04:26:12;;;;;;;2.15;1.05;;;;;;;;;;5073807;28;20045;-49
2021/07/01 04:28:38;;;;;;;5.05;1.17;;;;;;;;;;5058222;28;20025;-50
2021/07/01 04:31:04;;;;;;;8.25;1.27;;;;;;;;;;5055129;28;20452;-50
2021/07/01 04:33:30;;;;;;;2.58;1.30;;;;;;;;;;5053668;28;20047;-50
2021/07/01 04:35:56;;;;;;;4.20;1.10;;;;;;;;;;5056210;28;20025;-50
2021/07/01 04:38:23;;;;;;;8.05;1.25;;;;;;;;;;5056715;28;20056;-50
2021/07/01 04:40:49;;;;;;;7.43;1.58;;;;;;;;;;5054616;28;20073;-50
2021/07/01 04:43:15;;;;;;;2.95;1.27;;;;;;;;;;5055310;28;20051;-50
2021/07/01 04:45:41;;;;;;;5.38;1.30;;;;;;;;;;5056013;28;20029;-50
2021/07/01 04:48:07;;;;;;;1.63;1.10;;;;;;;;;;5060384;28;20345;-50
2021/07/01 04:50:33;;;;;;;1.50;1.30;;;;;;;;;;5058903;28;20356;-50
2021/07/01 04:52:59;;;;;;;2.78;1.38;;;;;;;;;;5055368;28;20107;-50
2021/07/01 04:55:25;;;;;;;1.65;1.17;;;;;;;;;;5055580;28;20549;-50
2021/07/01 04:57:51;;;;;;;1.30;1.20;;;;;;;;;;5055737;28;20047;-50
2021/07/01 05:00:18;;;;;;;1.77;1.13;;;;;;;;;;5056479;28;20124;-50
2021/07/01 05:02:44;;;;;;;1.42;1.02;;;;;;;;;;5054300;28;20043;-50
2021/07/01 05:05:10;;;;;;;2.08;1.20;;;;;;;;;;5055459;28;20029;-50
2021/07/01 05:07:45;;;;;;;1.90;1.02;;;;;;;;;;5055243;28;20051;-50
2021/07/01 05:10:12;;;;;;;1.27;0.98;;;;;;;;;;5060038;28;20025;-50
2021/07/01 05:12:38;;;;;;;16.95;1.55;;;;;;;;;;5055212;28;20037;-50
2021/07/01 05:15:05;;;;;;;5.82;1.08;;;;;;;;;;5054680;28;20452;-50
2021/07/01 05:17:33;;;;;;;5.43;1.50;;;;;;;;;;5054742;28;20029;-51
2021/07/01 05:19:59;;;;;;;2.10;1.10;;;;;;;;;;5055507;28;20345;-50
2021/07/01 05:22:25;;;;;;;7.78;1.50;;;;;;;;;;5053980;28;20036;-49
2021/07/01 05:24:51;;;;;;;6.00;1.40;;;;;;;;;;5053781;28;20029;-49
2021/07/01 05:27:17;;;;;;;2.35;1.42;;;;;;;;;;5053940;28;20104;-49
2021/07/01 05:29:43;;;;;;;2.22;1.20;;;;;;;;;;5055708;28;20329;-49
2021/07/01 05:32:09;;;;;;;1.02;0.90;;;;;;;;;;5054015;28;20075;-50
2021/07/01 05:34:35;;;;;;;1.40;1.30;;;;;;;;;;5054632;28;20067;-49
2021/07/01 05:37:01;;;;;;;2.63;1.13;;;;;;;;;;5056835;28;20077;-49
2021/07/01 05:39:27;;;;;;;1.40;1.23;;;;;;;;;;5074062;28;20390;-49
2021/07/01 05:41:53;;;;;;;5.82;1.75;;;;;;;;;;5071948;28;20033;-50
2021/07/01 05:44:19;;;;;;;1.42;1.20;;;;;;;;;;5064897;28;20036;-49
2021/07/01 05:46:45;;;;;;;4.07;1.40;;;;;;;;;;5058375;28;20372;-49
2021/07/01 05:49:12;;;;;;;1.83;1.38;;;;;;;;;;5055114;28;20036;-49
2021/07/01 05:51:39;;;;;;;1.85;1.30;;;;;;;;;;5064592;28;20514;-49
2021/07/01 05:54:21;;;;;;;1.92;1.10;;;;;;;;;;5053404;28;20032;-49
2021/07/01 05:56:47;;;;;;;4.22;1.23;;;;;;;;;;5053958;28;20048;-49
2021/07/01 05:59:14;;;;;;;5.75;1.30;;;;;;;;;;5054098;28;20029;-49
2021/07/01 06:01:40;;;;;;;2.10;1.20;;;;;;;;;;5054100;28;20021;-50
2021/07/01 06:04:07;;;;;;;4.90;0.90;;;;;;;;;;5053724;28;20032;-49
2021/07/01 06:06:37;;;;;;;1.90;1.25;;;;;;;;;;5054146;28;20025;-49
2021/07/01 06:09:06;;;;;;;40.55;2.28;;;;;;;;;;5054240;28;20039;-49
2021/07/01 06:11:36;;;;;;;3.58;1.52;;;;;;;;;;5053438;28;20441;-49
2021/07/01 06:14:05;;;;;;;8.38;1.25;;;;;;;;;;5054765;28;20064;-49
2021/07/01 06:16:32;;;;;;;18.98;1.48;;;;;;;;;;5053872;28;20031;-49
2021/07/01 06:18:58;;;;;;;11.13;1.65;;;;;;;;;;5053187;28;20028;-50
2021/07/01 06:21:25;;;;;;;3.40;1.30;;;;;;;;;;5053347;28;20021;-49
2021/07/01 06:23:52;;;;;;;13.00;1.42;;;;;;;;;;5054902;28;20040;-49
2021/07/01 06:26:25;;;;;;;6.43;1.17;;;;;;;;;;5053955;28;20028;-49
2021/07/01 06:28:51;;;;;;;2.42;1.23;;;;;;;;;;5053576;28;20248;-49
2021/07/01 06:31:17;;;;;;;2.80;1.58;;;;;;;;;;5052675;28;20103;-49
2021/07/01 06:33:45;;;;;;;1.20;1.10;;;;;;;;;;5054869;28;20057;-49
2021/07/01 06:36:11;;;;;;;1.75;1.20;;;;;;;;;;5053667;28;20024;-49
2021/07/01 06:38:37;;;;;;;3.33;1.48;;;;;;;;;;5053519;28;20032;-49
2021/07/01 06:41:07;;;;;;;1.42;1.27;;;;;;;;;;5052608;28;20029;-49
2021/07/01 06:43:33;;;;;;;3.03;1.30;;;;;;;;;;5054801;28;20033;-50
2021/07/01 06:46:00;;;;;;;2.30;1.40;;;;;;;;;;5053738;28;20025;-49
2021/07/01 06:48:26;;;;;;;6.53;1.48;;;;;;;;;;5053500;28;20094;-49
2021/07/01 06:50:58;;;;;;;2.55;1.45;;;;;;;;;;5068513;28;20021;-50
2021/07/01 06:53:25;;;;;;;5.40;1.63;;;;;;;;;;5058447;28;20039;-49
2021/07/01 06:55:51;;;;;;;43.97;2.30;;;;;;;;;;5053940;28;20036;-49
2021/07/01 06:58:18;;;;;;;27.77;3.25;;;;;;;;;;5053117;28;20029;-49
2021/07/01 07:00:44;;;;;;;35.03;4.18;;;;;;;;;;5051803;28;20028;-49
2021/07/01 07:03:16;;;;;;;44.15;3.50;;;;;;;;;;5053550;28;20037;-49
2021/07/01 07:05:42;;;;;;;44.03;4.20;;;;;;;;;;5059071;28;20063;-49
2021/07/01 07:08:09;;;;;;;19.40;2.92;;;;;;;;;;5062779;28;20036;-49
2021/07/01 07:10:39;;;;;;;9.65;2.00;;;;;;;;;;5072013;28;20363;-49
2021/07/01 07:13:05;;;;;;;41.70;4.00;;;;;;;;;;5073112;28;20032;-49
2021/07/01 07:15:32;;;;;;;7.32;2.17;;;;;;;;;;5071086;28;20036;-50
2021/07/01 07:18:06;;;;;;;56.75;5.13;;;;;;;;;;5073098;28;20052;-49
2021/07/01 07:20:34;;;;;;;8.90;1.70;;;;;;;;;;5072325;28;20035;-49
2021/07/01 07:23:03;;;;;;;11.07;1.67;;;;;;;;;;5071014;28;20107;-49
2021/07/01 07:25:30;;;;;;;10.07;1.30;;;;;;;;;;5072734;28;20466;-49
2021/07/01 07:28:04;;;;;;;6.95;1.25;;;;;;;;;;5070886;28;20058;-50
2021/07/01 07:30:30;;;;;;;1.42;1.10;;;;;;;;;;5072317;28;20440;-49
2021/07/01 07:32:56;;;;;;;1.75;1.20;;;;;;;;;;5072326;28;20048;-49
2021/07/01 07:35:23;;;;;;;2.63;1.60;;;;;;;;;;5072937;28;20016;-49
2021/07/01 07:37:49;;;;;;;4.40;1.40;;;;;;;;;;5069540;28;20371;-49
2021/07/01 07:40:15;;;;;;;25.10;2.33;;;;;;;;;;5071946;28;20021;-49
2021/07/01 07:42:47;;;;;;;3.45;1.70;;;;;;;;;;5067546;28;20055;-49
2021/07/01 07:45:14;;;;;;;2.20;1.50;;;;;;;;;;5052378;28;20028;-49
2021/07/01 07:47:40;;;;;;;2.45;1.33;;;;;;;;;;5053750;28;20063;-49
2021/07/01 07:50:07;;;;;;;37.65;2.22;;;;;;;;;;5061800;28;20068;-50
2021/07/01 07:52:33;;;;;;;51.33;2.50;;;;;;;;;;5072101;28;20023;-49
2021/07/01 07:55:03;;;;;;;5.55;1.52;;;;;;;;;;5071916;28;20375;-49
2021/07/01 07:57:31;;;;;;;2.60;1.25;;;;;;;;;;5072260;28;20021;-49
2021/07/01 07:59:58;;;;;;;1.77;1.42;;;;;;;;;;5058266;28;20435;-49
2021/07/01 08:02:27;;;;;;;2.70;1.73;;;;;;;;;;5055936;28;20064;-49
2021/07/01 08:04:53;;;;;;;1.60;1.30;;;;;;;;;;5068535;28;20029;-49
2021/07/01 08:07:19;;;;;;;17.88;2.30;;;;;;;;;;5076337;28;20025;-49
2021/07/01 08:09:45;;;;;;;3.97;1.45;;;;;;;;;;5074851;28;20029;-49
2021/07/01 08:12:11;;;;;;;4.72;1.73;;;;;;;;;;5075187;28;20043;-49
2021/07/01 08:14:42;;;;;;;4.32;1.85;;;;;;;;;;5076413;28;20043;-49
2021/07/01 08:17:08;;;;;;;46.15;3.58;;;;;;;;;;5076028;28;20020;-49
2021/07/01 08:19:36;;;;;;;3.30;1.80;;;;;;;;;;5074269;28;20035;-49
2021/07/01 08:22:03;;;;;;;6.13;1.92;;;;;;;;;;5074935;28;20021;-49
2021/07/01 08:24:30;;;;;;;3.60;2.22;;;;;;;;;;5076167;28;20037;-49
2021/07/01 08:26:56;;;;;;;5.50;2.10;;;;;;;;;;5075660;28;20021;-49
2021/07/01 08:29:22;;;;;;;40.65;2.78;;;;;;;;;;5074152;28;20045;-49
2021/07/01 08:31:49;;;;;;;9.25;2.15;;;;;;;;;;5075173;28;20027;-50
2021/07/01 08:34:18;;;;;;;6.63;2.17;;;;;;;;;;5075184;28;20359;-49
2021/07/01 08:36:45;;;;;;;32.28;2.83;;;;;;;;;;5075601;28;20107;-49
2021/07/01 08:39:11;;;;;;;29.60;2.78;;;;;;;;;;5072607;28;20332;-50
2021/07/01 08:41:40;;;;;;;7.72;2.03;;;;;;;;;;5071528;28;20036;-49
2021/07/01 08:44:06;;;;;;;5.05;1.60;;;;;;;;;;5075644;28;20111;-49
2021/07/01 08:46:44;;;;;;;36.30;3.15;;;;;;;;;;5064001;28;20029;-49
2021/07/01 08:49:11;;;;;;;11.65;2.10;;;;;;;;;;5058457;28;20471;-49
2021/07/01 08:51:37;;;;;;;19.40;2.75;;;;;;;;;;5064545;28;20072;-49
2021/07/01 08:54:15;;;;;;;27.95;2.88;;;;;;;;;;5065256;28;20408;-49
2021/07/01 08:56:42;;;;;;;77.22;6.18;;;;;;;;;;5057049;28;20036;-49
2021/07/01 08:59:09;;;;;;;14.05;2.15;;;;;;;;;;5071595;28;20082;-49
2021/07/01 09:01:38;;;;;;;24.80;2.92;;;;;;;;;;5069395;28;20082;-49
2021/07/01 09:04:05;;;;;;;4.22;1.45;;;;;;;;;;5075316;28;20071;-49
2021/07/01 09:06:36;;;;;;;57.22;3.72;;;;;;;;;;5074562;28;20033;-49
2021/07/01 09:09:04;;;;;;;4.18;1.55;;;;;;;;;;5075408;28;20024;-49
2021/07/01 09:11:34;;;;;;;9.55;1.75;;;;;;;;;;5072507;28;20452;-50
2021/07/01 09:14:03;;;;;;;25.02;2.22;;;;;;;;;;5056002;28;20036;-49
2021/07/01 09:16:30;;;;;;;21.15;2.15;;;;;;;;;;5054917;28;20064;-49
2021/07/01 09:18:57;;;;;;;1.67;1.23;;;;;;;;;;5054631;28;20620;-50
2021/07/01 09:21:23;;;;;;;4.28;1.10;;;;;;;;;;5054009;28;20025;-50
2021/07/01 09:23:50;;;;;;;8.98;1.60;;;;;;;;;;5055887;28;20548;-49
2021/07/01 09:26:20;;;;;;;18.00;1.73;;;;;;;;;;5061172;28;20138;-49
2021/07/01 09:28:47;;;;;;;9.88;1.80;;;;;;;;;;5074361;28;20063;-49
2021/07/01 09:31:15;;;;;;;8.68;1.38;;;;;;;;;;5073723;28;20016;-49
2021/07/01 09:33:42;;;;;;;4.93;1.70;;;;;;;;;;5073295;28;20025;-49
2021/07/01 09:36:09;;;;;;;3.28;1.83;;;;;;;;;;5074407;28;20407;-49
2021/07/01 09:38:35;;;;;;;7.03;1.80;;;;;;;;;;5074644;28;20363;-49
2021/07/01 09:41:01;;;;;;;4.43;1.70;;;;;;;;;;5073407;28;20036;-49
2021/07/01 09:43:28;;;;;;;8.73;1.60;;;;;;;;;;5074285;28;20045;-49
2021/07/01 09:45:54;;;;;;;4.60;1.35;;;;;;;;;;5056088;28;20112;-49
2021/07/01 09:48:23;;;;;;;5.97;1.40;;;;;;;;;;5054134;28;20032;-49
2021/07/01 09:50:49;;;;;;;3.85;1.50;;;;;;;;;;5068297;28;20031;-49
2021/07/01 09:53:25;;;;;;;1.85;1.40;;;;;;;;;;5073956;28;20035;-49
2021/07/01 09:55:52;;;;;;;9.93;1.75;;;;;;;;;;5070759;28;20025;-49
2021/07/01 09:58:19;;;;;;;3.03;1.65;;;;;;;;;;5074125;28;20406;-49
2021/07/01 10:00:52;;;;;;;8.20;2.13;;;;;;;;;;5059368;28;20086;-50
2021/07/01 10:03:19;;;;;;;2.17;1.75;;;;;;;;;;5063522;28;20352;-49
2021/07/01 10:05:45;;;;;;;2.00;1.45;;;;;;;;;;5072627;28;20024;-49
2021/07/01 10:08:11;;;;;;;2.50;1.98;;;;;;;;;;5074099;28;20074;-50
2021/07/01 10:10:50;;;;;;;2.42;1.90;;;;;;;;;;5073164;28;20024;-49
2021/07/01 10:13:18;;;;;;;3.80;1.75;;;;;;;;;;5074070;28;20107;-49
2021/07/01 10:15:46;;;;;;;6.70;2.33;;;;;;;;;;5072697;28;20612;-49
2021/07/01 10:18:16;;;;;;;22.75;2.33;;;;;;;;;;5073650;28;20515;-50
2021/07/01 10:20:46;;;;;;;3.35;1.80;;;;;;;;;;5072050;28;20032;-49
2021/07/01 10:23:26;;;;;;;12.60;2.28;;;;;;;;;;5073357;28;20044;-49
2021/07/01 10:25:54;;;;;;;2.58;1.50;;;;;;;;;;5073424;28;20463;-49
2021/07/01 10:28:21;;;;;;;3.45;2.40;;;;;;;;;;5056179;28;20035;-49
2021/07/01 10:30:55;;;;;;;7.53;1.95;;;;;;;;;;5053023;28;20025;-49
2021/07/01 10:33:22;;;;;;;8.88;1.98;;;;;;;;;;5051336;28;20426;-50
2021/07/01 10:35:48;;;;;;;11.45;2.95;;;;;;;;;;5053936;28;20033;-49
2021/07/01 10:38:14;;;;;;;13.45;2.75;;;;;;;;;;5054734;28;20458;-49
2021/07/01 10:40:42;;;;;;;5.97;2.03;;;;;;;;;;5057487;28;20143;-49
2021/07/01 10:43:08;;;;;;;12.88;2.33;;;;;;;;;;5072761;28;20032;-50
2021/07/01 10:45:35;;;;;;;18.92;2.97;;;;;;;;;;5071711;28;20025;-50
2021/07/01 10:48:11;;;;;;;8.20;2.22;;;;;;;;;;5072905;28;20035;-50
2021/07/01 10:50:37;;;;;;;48.88;4.78;;;;;;;;;;5069379;28;20029;-49
2021/07/01 10:53:03;;;;;;;24.92;2.42;;;;;;;;;;5053180;28;20506;-49
2021/07/01 10:55:39;;;;;;;32.83;2.75;;;;;;;;;;5053387;28;20049;-49
2021/07/01 10:58:05;;;;;;;2.97;2.17;;;;;;;;;;5053092;28;20440;-49
2021/07/01 11:00:38;;;;;;;10.77;1.90;;;;;;;;;;5066397;28;20063;-49
2021/07/01 11:03:04;;;;;;;4.88;2.13;;;;;;;;;;5071615;28;20040;-49
2021/07/01 11:05:35;;;;;;;10.35;2.08;;;;;;;;;;5073267;28;20078;-49
2021/07/01 11:08:01;;;;;;;5.88;2.33;;;;;;;;;;5072325;28;20059;-49
2021/07/01 11:10:38;;;;;;;11.10;2.20;;;;;;;;;;5073110;28;20024;-49
2021/07/01 11:13:08;;;;;;;6.47;2.08;;;;;;;;;;5070903;28;20112;-49
2021/07/01 11:15:34;;;;;;;2.67;1.92;;;;;;;;;;5072749;28;20032;-50
2021/07/01 11:18:08;;;;;;;2.83;2.25;;;;;;;;;;5072507;28;20104;-50
2021/07/01 11:20:34;;;;;;;4.10;2.15;;;;;;;;;;5071732;28;20134;-49
2021/07/01 11:23:02;;;;;;;9.13;1.90;;;;;;;;;;5070854;28;20107;-49
2021/07/01 11:25:38;;;;;;;3.25;2.22;;;;;;;;;;5072404;28;20056;-50
2021/07/01 11:28:29;;;;;;;4.47;2.17;;;;;;;;;;5072888;28;20039;-49
2021/07/01 11:31:02;;;;;;;3.55;1.90;;;;;;;;;;5072283;28;20029;-49
2021/07/01 11:33:32;;;;;;;9.75;2.85;;;;;;;;;;5070603;28;20070;-49
2021/07/01 11:36:10;;;;;;;7.88;2.03;;;;;;;;;;5072432;28;20025;-49
2021/07/01 11:38:36;;;;;;;7.72;2.03;;;;;;;;;;5072576;28;20115;-49
2021/07/01 11:41:05;;;;;;;2.08;1.55;;;;;;;;;;5072241;28;20021;-49
2021/07/01 11:43:32;;;;;;;1.75;1.33;;;;;;;;;;5071692;28;20411;-49
2021/07/01 11:45:59;;;;;;;1.38;1.17;;;;;;;;;;5070195;28;20031;-49
2021/07/01 11:48:25;;;;;;;2.83;1.88;;;;;;;;;;5070391;28;20052;-49
2021/07/01 11:50:52;;;;;;;8.63;1.50;;;;;;;;;;5071880;28;20025;-49
2021/07/01 11:53:19;;;;;;;5.47;1.30;;;;;;;;;;5072233;28;20021;-49
2021/07/01 11:55:47;;;;;;;1.10;1.00;;;;;;;;;;5059646;28;20037;-49
2021/07/01 11:58:13;;;;;;;1.80;1.00;;;;;;;;;;5052288;28;20449;-49
2021/07/01 12:00:39;;;;;;;1.45;0.82;;;;;;;;;;5052711;28;20119;-49
2021/07/01 12:03:05;;;;;;;2.75;1.10;;;;;;;;;;5051573;28;20029;-49
2021/07/01 12:05:33;;;;;;;1.08;0.90;;;;;;;;;;5053563;28;20024;-50
2021/07/01 12:07:59;;;;;;;3.97;1.10;;;;;;;;;;5052232;28;20048;-49
2021/07/01 12:10:25;;;;;;;6.50;1.05;;;;;;;;;;5052497;28;20018;-49
2021/07/01 12:12:51;;;;;;;1.83;0.80;;;;;;;;;;5051730;28;20049;-49
2021/07/01 12:15:17;;;;;;;1.08;0.98;;;;;;;;;;5052546;28;20033;-50
2021/07/01 12:17:54;;;;;;;1.63;0.70;;;;;;;;;;5052760;28;20063;-49
2021/07/01 12:20:30;;;;;;;6.82;1.42;;;;;;;;;;5052181;28;20535;-49
2021/07/01 12:22:57;;;;;;;1.52;0.80;;;;;;;;;;5051935;28;20041;-49
2021/07/01 12:25:26;;;;;;;0.70;0.70;;;;;;;;;;5053506;28;20017;-49
2021/07/01 12:28:11;;;;;;;26.48;1.30;;;;;;;;;;5052126;28;20029;-49
2021/07/01 12:30:57;;;;;;;0.90;0.85;;;;;;;;;;5051405;28;20112;-49
2021/07/01 12:33:38;;;;;;;9.63;1.00;;;;;;;;;;5053917;28;20071;-49
2021/07/01 12:36:07;;;;;;;0.90;0.90;;;;;;;;;;5070447;28;20028;-50
2021/07/01 12:38:33;;;;;;;3.47;1.25;;;;;;;;;;5057177;28;20033;-49
2021/07/01 12:41:00;;;;;;;2.28;0.80;;;;;;;;;;5051789;28;20033;-49
2021/07/01 12:43:51;;;;;;;3.20;1.38;;;;;;;;;;5051823;28;20037;-49
2021/07/01 12:46:35;;;;;;;0.60;0.60;;;;;;;;;;5055335;28;20029;-49
2021/07/01 12:49:02;;;;;;;5.20;1.17;;;;;;;;;;5055825;28;20513;-49
2021/07/01 12:51:43;;;;;;;5.05;1.35;;;;;;;;;;5072286;28;20051;-49
2021/07/01 12:54:39;;;;;;;3.55;1.25;;;;;;;;;;5055609;28;20040;-49
2021/07/01 12:57:07;;;;;;;8.32;1.17;;;;;;;;;;5055422;28;20083;-49
2021/07/01 12:59:34;;;;;;;19.20;1.70;;;;;;;;;;5056206;28;20139;-49
2021/07/01 13:02:11;;;;;;;3.47;1.45;;;;;;;;;;5055479;28;20036;-49
2021/07/01 13:04:38;;;;;;;8.45;1.52;;;;;;;;;;5055408;28;20066;-49
2021/07/01 13:07:05;;;;;;;18.85;1.33;;;;;;;;;;5055149;28;20025;-49
2021/07/01 13:09:31;;;;;;;20.73;1.38;;;;;;;;;;5056619;28;20032;-49
2021/07/01 13:11:57;;;;;;;1.75;1.02;;;;;;;;;;5054642;28;20021;-49
2021/07/01 13:14:24;;;;;;;7.88;1.23;;;;;;;;;;5055355;28;20029;-49
2021/07/01 13:17:09;;;;;;;2.40;1.70;;;;;;;;;;5055058;28;20466;-49
2021/07/01 13:19:39;;;;;;;2.22;1.30;;;;;;;;;;5063418;28;20033;-49
2021/07/01 13:22:12;;;;;;;3.38;1.13;;;;;;;;;;5074084;28;20027;-49
2021/07/01 13:24:57;;;;;;;1.92;1.30;;;;;;;;;;5074809;28;20166;-49
2021/07/01 13:27:33;;;;;;;2.80;1.10;;;;;;;;;;5073401;28;20028;-49
2021/07/01 13:30:00;;;;;;;13.80;1.48;;;;;;;;;;5074333;28;20059;-50
2021/07/01 13:32:26;;;;;;;2.88;1.40;;;;;;;;;;5074030;28;20025;-49
2021/07/01 13:34:52;;;;;;;9.07;1.50;;;;;;;;;;5074739;28;20029;-49
2021/07/01 13:37:28;;;;;;;4.55;1.10;;;;;;;;;;5074663;28;20028;-49
2021/07/01 13:39:55;;;;;;;4.53;1.50;;;;;;;;;;5059965;28;20029;-50
2021/07/01 13:42:34;;;;;;;21.55;1.77;;;;;;;;;;5053418;28;20043;-49
2021/07/01 13:45:08;;;;;;;21.40;1.50;;;;;;;;;;5054363;28;20025;-49
2021/07/01 13:48:00;;;;;;;8.80;1.02;;;;;;;;;;5054642;28;20041;-49
2021/07/01 13:50:30;;;;;;;1.98;1.38;;;;;;;;;;5064531;28;20098;-50
2021/07/01 13:52:58;;;;;;;2.08;1.42;;;;;;;;;;5064971;28;20116;-49
2021/07/01 13:55:26;;;;;;;5.78;1.90;;;;;;;;;;5054235;28;20029;-50
2021/07/01 13:57:53;;;;;;;9.27;1.83;;;;;;;;;;5054052;28;20020;-49
2021/07/01 14:00:29;;;;;;;9.77;2.38;;;;;;;;;;5055118;28;20040;-49
2021/07/01 14:03:00;;;;;;;4.65;1.50;;;;;;;;;;5062226;28;20051;-49
2021/07/01 14:05:26;;;;;;;;;;;;;;;;;;5072113;28;20028;-49
2021/07/01 14:07:52;;;;;;;3.78;1.38;;;;;;;;;;5073759;28;19911;-49
2021/07/01 14:10:18;;;;;;;17.98;1.65;;;;;;;;;;5069963;28;20064;-50
2021/07/01 14:12:44;;;;;;;1.98;1.25;;;;;;;;;;5072673;28;20078;-49
2021/07/01 14:15:11;;;;;;;8.07;1.77;;;;;;;;;;5065152;28;20017;-49
2021/07/01 14:17:37;;;;;;;1.52;1.05;;;;;;;;;;5053959;28;20029;-50
2021/07/01 14:20:04;;;;;;;2.72;1.25;;;;;;;;;;5053090;28;20037;-49
2021/07/01 14:22:33;;;;;;;1.50;1.38;;;;;;;;;;5053514;28;20045;-49
2021/07/01 14:25:14;;;;;;;4.88;1.45;;;;;;;;;;5053280;28;20032;-49
2021/07/01 14:27:40;;;;;;;2.03;1.45;;;;;;;;;;5053616;28;20100;-50
2021/07/01 14:30:06;;;;;;;3.67;1.60;;;;;;;;;;5061383;28;20120;-49
2021/07/01 14:32:35;;;;;;;8.80;1.88;;;;;;;;;;5053934;28;20025;-49
2021/07/01 14:35:01;;;;;;;17.33;1.52;;;;;;;;;;5055826;28;20032;-49
2021/07/01 14:37:27;;;;;;;2.28;1.50;;;;;;;;;;5055335;28;20033;-49
2021/07/01 14:40:03;;;;;;;14.30;1.58;;;;;;;;;;5051267;28;20029;-49
2021/07/01 14:42:32;;;;;;;4.57;1.27;;;;;;;;;;5052365;28;20029;-49
2021/07/01 14:45:05;;;;;;;16.27;1.58;;;;;;;;;;5053154;28;20471;-49